Time;durP1;ratioP1;P1;durP2;ratioP2;P2;SDS_P1;SDS_P2;PMS_P1;PMS_P2;Temp;Humidity;BMP_temperature;BMP_pressure;BME280_temperature;BME280_humidity;BME280_pressure;Samples;Min_cycle;Max_cycle;Signal;HPM_P1;HPM_P2
2021/06/30 00:02:10;;;;;;;13.60;12.40;;;22.60;99.90;;;;;;6098645;23;20175;-66
2021/06/30 00:04:37;;;;;;;12.97;11.77;;;22.40;99.90;;;;;;6108955;23;20166;-66
2021/06/30 00:07:04;;;;;;;13.17;11.97;;;22.40;99.90;;;;;;6108963;23;20163;-66
2021/06/30 00:09:30;;;;;;;14.23;11.23;;;22.50;99.90;;;;;;6109026;23;20834;-66
2021/06/30 00:11:55;;;;;;;12.80;11.63;;;22.50;99.90;;;;;;6097990;23;20537;-66
2021/06/30 00:14:22;;;;;;;13.10;11.80;;;22.40;99.90;;;;;;6108960;23;20214;-66
2021/06/30 00:16:49;;;;;;;14.83;13.43;;;22.50;99.90;;;;;;6108947;23;20160;-66
2021/06/30 00:19:14;;;;;;;15.30;13.90;;;22.50;99.90;;;;;;6108842;23;20751;-66
2021/06/30 00:21:41;;;;;;;14.43;12.93;;;22.60;99.90;;;;;;6108981;23;20858;-66
2021/06/30 00:24:07;;;;;;;15.90;13.47;;;22.60;99.90;;;;;;6109117;23;20155;-66
2021/06/30 00:26:33;;;;;;;14.60;13.20;;;22.50;99.90;;;;;;6099197;23;20421;-68
2021/06/30 00:28:59;;;;;;;13.60;12.40;;;22.20;99.90;;;;;;6108801;23;20839;-67
2021/06/30 00:31:24;;;;;;;13.23;12.03;;;22.00;99.90;;;;;;6108745;23;20399;-66
2021/06/30 00:33:50;;;;;;;12.10;10.93;;;21.90;99.90;;;;;;6108795;23;20165;-66
2021/06/30 00:36:16;;;;;;;10.90;10.00;;;21.40;99.90;;;;;;6108846;23;20159;-66
2021/06/30 00:38:41;;;;;;;11.40;10.33;;;20.80;99.90;;;;;;6108504;23;20247;-66
2021/06/30 00:41:07;;;;;;;11.93;10.83;;;20.80;99.90;;;;;;6107801;23;20155;-67
2021/06/30 00:43:33;;;;;;;12.97;11.67;;;20.60;99.90;;;;;;6108849;23;20464;-67
2021/06/30 00:45:59;;;;;;;12.33;11.23;;;20.60;99.90;;;;;;6108772;23;20396;-67
2021/06/30 00:48:24;;;;;;;13.47;12.27;;;20.70;99.90;;;;;;6108610;23;20398;-66
2021/06/30 00:50:50;;;;;;;14.67;12.10;;;20.60;99.90;;;;;;6108913;23;20457;-66
2021/06/30 00:53:16;;;;;;;13.57;12.37;;;20.70;99.90;;;;;;6099057;23;20489;-66
2021/06/30 00:55:41;;;;;;;14.30;12.40;;;20.60;99.90;;;;;;6108653;23;20223;-66
2021/06/30 00:58:08;;;;;;;15.10;12.93;;;20.70;99.90;;;;;;6108377;23;20159;-67
2021/06/30 01:00:33;;;;;;;15.30;13.80;;;20.70;99.90;;;;;;6097996;23;20167;-66
2021/06/30 01:02:59;;;;;;;15.03;13.57;;;20.70;99.90;;;;;;6099182;23;20867;-66
2021/06/30 01:05:25;;;;;;;15.47;13.97;;;20.50;99.90;;;;;;6108620;23;20156;-67
2021/06/30 01:07:50;;;;;;;16.60;14.80;;;20.50;99.90;;;;;;6108368;23;20594;-66
2021/06/30 01:10:16;;;;;;;15.63;14.07;;;20.50;99.90;;;;;;6108449;23;20195;-66
2021/06/30 01:12:42;;;;;;;16.43;14.73;;;20.50;99.90;;;;;;6108383;23;20265;-66
2021/06/30 01:15:10;;;;;;;17.27;15.53;;;20.50;99.90;;;;;;6108443;23;20886;-65
2021/06/30 01:17:36;;;;;;;17.83;15.93;;;20.50;99.90;;;;;;6108535;23;20234;-65
2021/06/30 01:20:04;;;;;;;17.67;15.87;;;20.50;99.90;;;;;;6108329;23;20398;-65
2021/06/30 01:22:29;;;;;;;16.23;14.63;;;20.30;99.90;;;;;;6121865;23;20407;-65
2021/06/30 01:24:55;;;;;;;16.50;14.83;;;20.00;99.90;;;;;;6108088;23;20395;-65
2021/06/30 01:27:22;;;;;;;16.80;15.10;;;19.80;99.90;;;;;;6108428;23;20151;-65
2021/06/30 01:29:48;;;;;;;18.13;16.20;;;19.80;99.90;;;;;;6108034;23;20156;-66
2021/06/30 01:32:14;;;;;;;19.00;17.00;;;19.80;99.90;;;;;;6108041;23;20435;-66
2021/06/30 01:34:39;;;;;;;19.00;17.03;;;19.60;99.90;;;;;;6107640;23;20406;-66
2021/06/30 01:37:05;;;;;;;19.10;17.00;;;19.40;99.90;;;;;;6108058;23;20384;-67
2021/06/30 01:39:31;;;;;;;19.70;17.30;;;19.30;99.90;;;;;;6108115;23;20163;-67
2021/06/30 01:41:57;;;;;;;19.53;17.10;;;19.30;99.90;;;;;;6108037;23;20163;-68
2021/06/30 01:44:22;;;;;;;20.47;17.20;;;19.10;99.90;;;;;;6107992;23;20151;-68
2021/06/30 01:46:48;;;;;;;20.17;17.63;;;18.70;99.90;;;;;;6107905;23;20458;-68
2021/06/30 01:49:14;;;;;;;21.97;18.27;;;18.40;99.90;;;;;;6107973;23;20187;-68
2021/06/30 01:51:40;;;;;;;19.23;17.23;;;18.40;99.90;;;;;;6073082;23;20406;-67
2021/06/30 01:54:12;;;;;;;18.30;16.00;;;18.40;99.90;;;;;;6108006;23;20474;-68
2021/06/30 01:56:38;;;;;;;22.63;18.10;;;18.50;99.90;;;;;;6108233;23;20603;-66
2021/06/30 01:59:11;;;;;;;20.10;16.00;;;18.40;99.90;;;;;;6098450;23;20423;-65
2021/06/30 02:01:37;;;;;;;18.23;16.13;;;18.20;99.90;;;;;;6108186;23;20140;-65
2021/06/30 02:04:04;;;;;;;19.30;16.60;;;18.10;99.90;;;;;;6096846;23;20862;-66
2021/06/30 02:06:36;;;;;;;20.13;17.33;;;18.00;99.90;;;;;;6098321;23;20395;-65
2021/06/30 02:09:04;;;;;;;20.00;16.47;;;18.10;99.90;;;;;;6106908;23;20383;-67
2021/06/30 02:11:29;;;;;;;22.10;17.17;;;18.10;99.90;;;;;;6107690;23;20873;-67
2021/06/30 02:13:55;;;;;;;24.47;18.67;;;18.10;99.90;;;;;;6107811;23;20387;-67
2021/06/30 02:16:20;;;;;;;26.60;19.90;;;17.90;99.90;;;;;;6107864;23;20187;-66
2021/06/30 02:18:47;;;;;;;28.33;19.87;;;17.90;99.90;;;;;;6107274;23;20156;-67
2021/06/30 02:21:12;;;;;;;31.73;20.30;;;17.90;99.90;;;;;;6107396;23;20163;-66
2021/06/30 02:23:38;;;;;;;27.20;21.07;;;18.10;99.90;;;;;;6108070;23;20740;-66
2021/06/30 02:26:04;;;;;;;26.00;21.50;;;18.30;99.90;;;;;;6107626;23;20175;-67
2021/06/30 02:28:30;;;;;;;28.40;20.93;;;18.30;99.90;;;;;;6120986;23;20399;-67
2021/06/30 02:30:56;;;;;;;28.00;20.70;;;18.30;99.90;;;;;;6121376;23;20171;-66
2021/06/30 02:33:22;;;;;;;40.53;22.30;;;18.60;99.90;;;;;;6107846;23;20482;-66
2021/06/30 02:35:47;;;;;;;38.33;22.80;;;18.80;99.90;;;;;;6108306;23;20182;-66
2021/06/30 02:38:13;;;;;;;25.87;20.53;;;18.80;99.90;;;;;;6121219;23;20163;-67
2021/06/30 02:40:40;;;;;;;36.83;23.03;;;19.00;99.90;;;;;;6098920;23;20164;-67
2021/06/30 02:43:06;;;;;;;33.07;23.10;;;18.90;99.90;;;;;;6108355;23;20387;-66
2021/06/30 02:45:31;;;;;;;30.53;23.23;;;18.90;99.90;;;;;;6098608;23;20752;-67
2021/06/30 02:47:57;;;;;;;37.20;24.40;;;18.90;99.90;;;;;;6098628;23;20486;-67
2021/06/30 02:50:23;;;;;;;39.27;23.60;;;19.10;99.90;;;;;;6108104;23;20159;-67
2021/06/30 02:52:50;;;;;;;33.80;22.27;;;19.10;99.90;;;;;;6108220;23;20490;-67
2021/06/30 02:55:17;;;;;;;36.50;25.67;;;19.10;99.90;;;;;;6097604;23;20190;-67
2021/06/30 02:57:44;;;;;;;34.87;23.77;;;19.10;99.90;;;;;;6121240;23;20631;-65
2021/06/30 03:00:22;;;;;;;36.90;24.00;;;19.20;99.90;;;;;;6108087;23;20453;-65
2021/06/30 03:02:49;;;;;;;34.13;24.03;;;19.00;99.90;;;;;;6098611;23;20471;-65
2021/06/30 03:05:15;;;;;;;37.80;25.97;;;18.90;99.90;;;;;;6108111;23;20738;-65
2021/06/30 03:07:40;;;;;;;37.53;25.07;;;19.00;99.90;;;;;;6107929;23;20387;-65
2021/06/30 03:10:08;;;;;;;35.47;24.20;;;19.10;99.90;;;;;;6108128;23;20152;-65
2021/06/30 03:12:35;;;;;;;38.57;26.30;;;18.90;99.90;;;;;;6107941;23;20506;-67
2021/06/30 03:15:01;;;;;;;36.80;26.03;;;19.00;99.90;;;;;;6107989;23;20478;-67
2021/06/30 03:17:27;;;;;;;41.67;27.13;;;19.10;99.90;;;;;;6097924;23;20854;-68
2021/06/30 03:19:53;;;;;;;41.20;26.17;;;19.00;99.90;;;;;;6107703;23;20388;-67
2021/06/30 03:22:20;;;;;;;40.73;27.97;;;18.90;99.90;;;;;;6108282;23;20163;-74
2021/06/30 03:24:46;;;;;;;40.90;26.10;;;19.00;99.90;;;;;;6098585;23;20583;-69
2021/06/30 03:27:11;;;;;;;37.43;25.53;;;19.10;99.90;;;;;;6108206;23;20411;-68
2021/06/30 03:29:37;;;;;;;39.10;27.47;;;19.20;99.90;;;;;;6107807;23;20454;-68
2021/06/30 03:32:02;;;;;;;39.03;25.67;;;19.10;99.90;;;;;;6120780;23;20281;-68
2021/06/30 03:34:28;;;;;;;37.00;26.43;;;19.50;99.90;;;;;;6107790;23;20183;-69
2021/06/30 03:36:53;;;;;;;44.47;26.50;;;19.50;99.90;;;;;;6107997;23;20227;-67
2021/06/30 03:39:19;;;;;;;38.90;26.70;;;19.40;99.90;;;;;;6107796;23;20167;-67
2021/06/30 03:41:45;;;;;;;36.10;25.00;;;19.70;99.90;;;;;;6107673;23;20207;-67
2021/06/30 03:44:10;;;;;;;36.20;25.77;;;19.80;99.90;;;;;;6107485;23;20188;-67
2021/06/30 03:46:36;;;;;;;37.27;26.77;;;19.90;99.90;;;;;;6120957;23;20230;-68
2021/06/30 03:49:02;;;;;;;43.00;26.83;;;20.10;99.90;;;;;;6120815;23;20156;-68
2021/06/30 03:51:27;;;;;;;34.80;25.90;;;20.20;99.90;;;;;;6107751;23;20191;-68
2021/06/30 03:53:53;;;;;;;35.23;24.73;;;20.30;99.90;;;;;;6098071;23;20398;-67
2021/06/30 03:56:24;;;;;;;32.23;24.27;;;20.50;99.90;;;;;;6107725;23;20198;-65
2021/06/30 03:58:52;;;;;;;35.53;24.43;;;20.40;99.90;;;;;;6107593;23;20140;-65
2021/06/30 04:01:18;;;;;;;31.40;23.47;;;20.70;99.90;;;;;;6097203;23;20395;-65
2021/06/30 04:03:45;;;;;;;30.40;23.10;;;20.90;99.90;;;;;;6107777;23;20783;-65
2021/06/30 04:06:10;;;;;;;30.47;23.10;;;20.60;99.90;;;;;;6107735;23;20576;-65
2021/06/30 04:08:36;;;;;;;32.33;23.77;;;20.50;99.90;;;;;;6107560;23;20406;-65
2021/06/30 04:11:02;;;;;;;28.40;23.73;;;20.20;99.90;;;;;;6098231;23;20164;-65
2021/06/30 04:13:27;;;;;;;29.97;22.87;;;20.30;99.90;;;;;;6107736;23;20188;-65
2021/06/30 04:15:52;;;;;;;32.30;23.00;;;20.00;99.90;;;;;;6107746;23;20182;-65
2021/06/30 04:18:18;;;;;;;29.17;24.03;;;20.20;99.90;;;;;;6107401;23;20217;-65
2021/06/30 04:20:44;;;;;;;31.30;25.00;;;20.40;99.90;;;;;;6107686;23;20167;-65
2021/06/30 04:23:10;;;;;;;30.00;24.10;;;20.30;99.90;;;;;;6098323;23;20179;-65
2021/06/30 04:25:36;;;;;;;33.00;25.63;;;19.90;99.90;;;;;;6107615;23;20419;-65
2021/06/30 04:28:01;;;;;;;31.83;23.20;;;19.80;99.90;;;;;;6107791;23;20152;-65
2021/06/30 04:30:27;;;;;;;30.33;25.27;;;19.60;99.90;;;;;;6107251;23;20453;-64
2021/06/30 04:32:52;;;;;;;30.93;23.50;;;19.60;99.90;;;;;;6097958;23;20194;-64
2021/06/30 04:35:18;;;;;;;31.03;24.27;;;19.70;99.90;;;;;;6109469;23;20151;-65
2021/06/30 04:37:44;;;;;;;31.43;24.20;;;19.90;99.90;;;;;;6109428;23;20151;-65
2021/06/30 04:40:09;;;;;;;34.50;25.10;;;19.70;99.90;;;;;;6109175;23;20179;-65
2021/06/30 04:42:35;;;;;;;31.93;24.30;;;19.70;99.90;;;;;;6122542;23;20223;-65
2021/06/30 04:45:00;;;;;;;30.07;23.83;;;20.10;99.90;;;;;;6098032;23;20163;-65
2021/06/30 04:47:26;;;;;;;30.53;23.20;;;20.50;99.90;;;;;;6098104;23;20242;-64
2021/06/30 04:49:52;;;;;;;31.73;24.47;;;20.70;99.90;;;;;;6122625;23;20159;-65
2021/06/30 04:52:17;;;;;;;31.83;23.87;;;21.20;99.90;;;;;;6099032;23;20283;-65
2021/06/30 04:54:43;;;;;;;34.33;25.30;;;21.00;99.90;;;;;;6108854;23;20160;-65
2021/06/30 04:57:08;;;;;;;28.87;22.13;;;21.00;99.90;;;;;;6108917;23;20167;-66
2021/06/30 04:59:34;;;;;;;26.77;22.13;;;21.40;99.90;;;;;;6108911;23;20230;-65
2021/06/30 05:01:59;;;;;;;26.30;22.03;;;21.50;99.90;;;;;;6108843;23;20202;-65
2021/06/30 05:04:25;;;;;;;27.67;22.70;;;21.40;99.90;;;;;;6109080;23;20160;-65
2021/06/30 05:06:50;;;;;;;25.80;22.60;;;21.60;99.90;;;;;;6108289;23;20218;-65
2021/06/30 05:09:16;;;;;;;27.90;23.80;;;21.60;99.90;;;;;;6108371;23;20164;-65
2021/06/30 05:11:42;;;;;;;28.40;24.63;;;21.90;97.30;;;;;;6108225;23;20254;-65
2021/06/30 05:14:07;;;;;;;27.40;22.20;;;22.10;20.90;;;;;;6107661;23;20160;-65
2021/06/30 05:16:33;;;;;;;30.77;26.03;;;22.20;5.50;;;;;;6108075;23;20163;-65
2021/06/30 05:18:58;;;;;;;27.80;23.43;;;22.30;1.00;;;;;;6107953;23;20166;-65
2021/06/30 05:21:24;;;;;;;27.83;23.63;;;22.20;1.00;;;;;;6108128;23;20151;-65
2021/06/30 05:23:50;;;;;;;31.07;24.90;;;22.00;5.50;;;;;;6098226;23;20217;-65
2021/06/30 05:26:16;;;;;;;28.40;24.30;;;21.80;99.90;;;;;;6107829;23;20633;-68
2021/06/30 05:28:41;;;;;;;28.90;24.13;;;21.90;97.90;;;;;;6107468;23;20854;-68
2021/06/30 05:31:07;;;;;;;28.10;23.93;;;22.10;39.40;;;;;;6108353;23;20152;-68
2021/06/30 05:33:33;;;;;;;29.77;24.20;;;21.60;99.90;;;;;;6097234;23;20199;-68
2021/06/30 05:35:58;;;;;;;26.97;23.33;;;21.40;99.90;;;;;;6107992;23;20160;-68
2021/06/30 05:38:24;;;;;;;30.20;24.60;;;21.30;99.90;;;;;;6106179;23;20163;-68
2021/06/30 05:40:51;;;;;;;29.30;23.37;;;21.50;99.90;;;;;;6108134;23;20503;-68
2021/06/30 05:43:17;;;;;;;28.50;23.17;;;21.80;99.90;;;;;;6107604;23;20403;-68
2021/06/30 05:45:42;;;;;;;29.03;24.03;;;21.80;99.90;;;;;;6107931;23;20395;-68
2021/06/30 05:48:08;;;;;;;26.60;21.53;;;21.60;99.90;;;;;;6098137;23;20775;-68
2021/06/30 05:50:35;;;;;;;29.47;22.10;;;21.60;99.90;;;;;;6098499;23;21046;-68
2021/06/30 05:53:02;;;;;;;26.43;22.37;;;21.70;99.90;;;;;;6107934;23;20904;-68
2021/06/30 05:55:28;;;;;;;28.90;21.90;;;22.00;99.90;;;;;;6107754;23;20514;-68
2021/06/30 05:57:54;;;;;;;26.70;21.90;;;22.20;20.60;;;;;;6107866;23;20771;-68
2021/06/30 06:00:21;;;;;;;25.43;21.37;;;22.40;1.00;;;;;;6107517;23;20456;-68
2021/06/30 06:02:47;;;;;;;23.57;19.00;;;22.40;1.00;;;;;;6106561;23;20183;-69
2021/06/30 06:05:13;;;;;;;23.83;19.43;;;22.50;1.00;;;;;;6107890;23;20396;-68
2021/06/30 06:07:39;;;;;;;25.10;18.93;;;22.60;1.00;;;;;;6097176;23;20396;-68
2021/06/30 06:10:05;;;;;;;23.83;19.93;;;22.40;1.00;;;;;;6107521;23;20446;-67
2021/06/30 06:12:31;;;;;;;26.17;21.07;;;22.20;1.00;;;;;;6107220;23;20442;-67
2021/06/30 06:14:57;;;;;;;25.07;20.63;;;22.20;1.00;;;;;;6107840;23;20383;-67
2021/06/30 06:17:23;;;;;;;21.50;19.27;;;21.90;1.00;;;;;;6107756;23;20750;-67
2021/06/30 06:19:48;;;;;;;26.47;19.57;;;21.60;11.50;;;;;;6107517;23;20155;-67
2021/06/30 06:22:14;;;;;;;24.17;20.00;;;21.50;99.90;;;;;;6120401;23;20160;-68
2021/06/30 06:24:40;;;;;;;24.17;19.53;;;21.70;63.00;;;;;;6107665;23;20166;-68
2021/06/30 06:27:08;;;;;;;25.37;20.57;;;21.90;34.80;;;;;;6107187;23;20483;-68
2021/06/30 06:29:34;;;;;;;21.47;19.00;;;22.20;1.00;;;;;;6107215;23;20233;-69
2021/06/30 06:32:01;;;;;;;21.70;18.40;;;22.80;1.00;;;;;;6120951;23;20435;-66
2021/06/30 06:34:26;;;;;;;21.30;18.70;;;23.00;1.00;;;;;;6107443;23;20383;-67
2021/06/30 06:36:52;;;;;;;19.43;17.30;;;23.40;99.90;;;;;;6106976;23;20470;-67
2021/06/30 06:39:19;;;;;;;20.77;18.53;;;23.00;99.90;;;;;;6107207;23;20187;-67
2021/06/30 06:41:45;;;;;;;19.90;17.03;;;23.30;99.90;;;;;;6107403;23;20152;-68
2021/06/30 06:44:11;;;;;;;22.80;18.20;;;23.40;99.90;;;;;;6107747;23;20483;-68
2021/06/30 06:46:39;;;;;;;22.63;17.30;;;23.10;99.90;;;;;;6106930;23;20423;-69
2021/06/30 06:49:06;;;;;;;18.03;16.03;;;22.90;99.90;;;;;;6096933;23;20242;-72
2021/06/30 06:51:31;;;;;;;17.77;15.70;;;23.10;99.90;;;;;;6107115;23;20392;-70
2021/06/30 06:53:57;;;;;;;20.50;16.57;;;23.00;99.90;;;;;;6107030;23;20438;-74
2021/06/30 06:56:26;;;;;;;27.10;17.87;;;22.60;1.00;;;;;;6095591;23;20243;-73
2021/06/30 06:58:53;;;;;;;19.40;17.30;;;22.10;1.00;;;;;;6107695;23;20175;-72
2021/06/30 07:01:18;;;;;;;21.60;18.20;;;22.00;1.00;;;;;;6106374;23;20842;-71
2021/06/30 07:03:44;;;;;;;21.17;18.03;;;22.20;1.00;;;;;;6107405;23;20391;-72
2021/06/30 07:06:10;;;;;;;22.27;19.70;;;22.40;1.00;;;;;;6107361;23;20163;-72
2021/06/30 07:08:35;;;;;;;20.67;18.50;;;22.10;1.00;;;;;;6096097;23;20156;-72
2021/06/30 07:11:01;;;;;;;23.37;18.90;;;21.90;1.00;;;;;;6106938;23;20164;-73
2021/06/30 07:13:26;;;;;;;22.30;17.73;;;22.10;1.00;;;;;;6107030;23;20265;-72
2021/06/30 07:15:52;;;;;;;20.77;17.80;;;21.90;1.00;;;;;;6107586;23;20532;-67
2021/06/30 07:18:18;;;;;;;20.33;17.93;;;21.60;1.00;;;;;;6097379;23;20255;-72
2021/06/30 07:20:44;;;;;;;18.97;16.97;;;21.70;2.00;;;;;;6107233;23;20602;-72
2021/06/30 07:23:13;;;;;;;20.30;17.50;;;21.40;84.40;;;;;;6107937;23;20187;-70
2021/06/30 07:25:40;;;;;;;18.40;16.40;;;21.80;1.40;;;;;;6107037;23;20492;-72
2021/06/30 07:28:06;;;;;;;17.87;15.97;;;22.20;1.00;;;;;;6106706;23;20676;-73
2021/06/30 07:30:32;;;;;;;19.70;17.07;;;22.40;1.00;;;;;;6106913;23;20388;-71
2021/06/30 07:32:58;;;;;;;17.73;15.83;;;22.40;1.00;;;;;;6107741;23;20730;-71
2021/06/30 07:35:24;;;;;;;18.07;15.40;;;22.50;1.00;;;;;;6108009;23;20186;-72
2021/06/30 07:37:49;;;;;;;16.93;14.33;;;22.50;1.00;;;;;;6107814;23;20811;-72
2021/06/30 07:40:16;;;;;;;17.80;15.90;;;22.60;1.00;;;;;;6107064;23;20156;-72
2021/06/30 07:42:41;;;;;;;17.60;15.70;;;22.70;1.00;;;;;;6106404;23;20155;-67
2021/06/30 07:45:08;;;;;;;17.60;15.77;;;22.70;1.00;;;;;;6107267;23;20434;-68
2021/06/30 07:47:33;;;;;;;17.80;15.90;;;22.80;99.90;;;;;;6106727;23;20207;-66
2021/06/30 07:50:01;;;;;;;18.63;16.63;;;22.80;99.90;;;;;;6106603;23;20407;-67
2021/06/30 07:52:27;;;;;;;19.37;16.37;;;23.00;99.90;;;;;;6106863;23;20427;-67
2021/06/30 07:54:52;;;;;;;17.10;15.30;;;22.60;1.00;;;;;;6107254;23;20511;-69
2021/06/30 07:57:18;;;;;;;18.17;16.30;;;22.30;1.00;;;;;;6095497;23;20446;-66
2021/06/30 07:59:43;;;;;;;17.57;15.77;;;22.30;1.00;;;;;;6107023;23;20571;-70
2021/06/30 08:02:09;;;;;;;18.30;16.20;;;22.20;1.00;;;;;;6107448;23;20179;-68
2021/06/30 08:04:35;;;;;;;17.03;15.10;;;22.80;1.00;;;;;;6107296;23;20607;-67
2021/06/30 08:07:00;;;;;;;16.40;14.57;;;23.00;1.00;;;;;;6108174;23;20191;-68
2021/06/30 08:09:27;;;;;;;16.87;14.30;;;23.10;1.00;;;;;;6108972;23;20155;-69
2021/06/30 08:11:53;;;;;;;15.53;13.73;;;23.00;99.90;;;;;;6100016;23;20156;-66
2021/06/30 08:14:18;;;;;;;15.07;13.53;;;22.80;99.90;;;;;;6109188;23;20470;-68
2021/06/30 08:16:44;;;;;;;14.20;12.80;;;23.30;1.00;;;;;;6109240;23;20156;-65
2021/06/30 08:19:09;;;;;;;14.63;13.13;;;23.20;14.80;;;;;;6109507;23;20470;-68
2021/06/30 08:21:35;;;;;;;16.13;14.43;;;23.10;99.90;;;;;;6109327;23;20143;-68
2021/06/30 08:24:01;;;;;;;15.23;13.60;;;23.00;99.90;;;;;;6108669;23;20194;-68
2021/06/30 08:26:26;;;;;;;18.43;16.47;;;23.30;99.90;;;;;;6108501;23;20410;-67
2021/06/30 08:28:52;;;;;;;17.77;15.87;;;23.30;99.90;;;;;;6108245;23;20242;-67
2021/06/30 08:31:18;;;;;;;20.70;17.13;;;22.60;1.00;;;;;;6108473;23;20215;-67
2021/06/30 08:33:43;;;;;;;19.03;15.70;;;22.50;1.00;;;;;;6108322;23;20188;-67
2021/06/30 08:36:09;;;;;;;19.10;16.47;;;22.60;1.00;;;;;;6108627;23;20159;-67
2021/06/30 08:38:34;;;;;;;19.43;15.87;;;22.70;1.00;;;;;;6122018;23;20174;-68
2021/06/30 08:41:02;;;;;;;18.93;15.93;;;22.70;1.00;;;;;;6108439;23;20567;-71
2021/06/30 08:43:28;;;;;;;18.53;16.50;;;22.70;1.00;;;;;;6108663;23;20598;-72
2021/06/30 08:45:55;;;;;;;17.17;15.37;;;22.80;1.00;;;;;;6108582;23;20869;-69
2021/06/30 08:48:20;;;;;;;17.97;15.37;;;23.10;1.00;;;;;;6108015;23;20392;-69
2021/06/30 08:50:47;;;;;;;22.63;16.70;;;23.20;1.00;;;;;;6108269;23;20419;-68
2021/06/30 08:53:14;;;;;;;16.23;14.53;;;23.40;99.90;;;;;;6108429;23;20176;-71
2021/06/30 08:55:45;;;;;;;15.90;14.20;;;23.80;99.90;;;;;;6109382;23;20387;-69
2021/06/30 08:58:12;;;;;;;20.73;14.47;;;24.40;19.90;;;;;;6107965;23;20387;-70
2021/06/30 09:00:38;;;;;;;19.47;15.17;;;24.40;6.50;;;;;;6108845;23;20383;-68
2021/06/30 09:03:07;;;;;;;15.77;12.93;;;24.30;99.90;;;;;;6108489;23;20858;-67
2021/06/30 09:05:49;;;;;;;16.67;14.73;;;24.10;1.00;;;;;;6108509;23;20755;-67
2021/06/30 09:08:15;;;;;;;14.20;12.70;;;23.60;99.90;;;;;;6098731;23;20719;-71
2021/06/30 09:10:40;;;;;;;16.77;12.60;;;23.60;99.90;;;;;;6121976;23;20395;-71
2021/06/30 09:13:18;;;;;;;14.60;13.10;;;23.90;1.00;;;;;;6108563;23;20715;-70
2021/06/30 09:15:43;;;;;;;14.20;12.70;;;23.60;45.70;;;;;;6108544;23;20509;-70
2021/06/30 09:18:21;;;;;;;15.23;13.33;;;23.60;99.90;;;;;;6108528;23;20392;-71
2021/06/30 09:20:47;;;;;;;17.17;14.27;;;23.60;99.90;;;;;;6108527;23;20175;-71
2021/06/30 09:23:13;;;;;;;16.30;13.83;;;24.20;1.00;;;;;;6108200;23;20470;-71
2021/06/30 09:25:41;;;;;;;16.90;12.23;;;24.70;1.00;;;;;;6108468;23;20258;-71
2021/06/30 09:28:25;;;;;;;15.20;13.70;;;24.50;1.00;;;;;;6097190;23;20243;-70
2021/06/30 09:31:05;;;;;;;13.33;11.93;;;23.60;31.40;;;;;;6108346;23;20388;-71
2021/06/30 09:33:51;;;;;;;13.97;12.47;;;23.40;99.90;;;;;;6108132;23;20438;-70
2021/06/30 09:36:17;;;;;;;14.17;11.47;;;24.10;1.00;;;;;;6108175;23;20387;-68
2021/06/30 09:38:44;;;;;;;14.50;11.43;;;24.30;1.00;;;;;;6107810;23;20438;-68
2021/06/30 09:41:27;;;;;;;11.90;10.70;;;24.40;6.90;;;;;;6107981;23;20394;-70
2021/06/30 09:44:16;;;;;;;13.20;11.80;;;23.50;49.20;;;;;;6107980;23;20909;-70
2021/06/30 09:46:43;;;;;;;16.63;12.50;;;23.10;99.90;;;;;;6096884;23;20943;-69
2021/06/30 09:49:19;;;;;;;15.07;11.70;;;23.20;99.90;;;;;;6108013;23;20387;-69
2021/06/30 09:51:47;;;;;;;15.30;12.07;;;23.50;99.90;;;;;;6108291;23;20463;-72
2021/06/30 09:54:15;;;;;;;16.03;13.50;;;23.40;99.90;;;;;;6097250;23;20384;-68
2021/06/30 09:56:54;;;;;;;15.07;13.40;;;23.20;99.90;;;;;;6098186;23;20392;-68
2021/06/30 09:59:22;;;;;;;15.23;12.07;;;23.20;99.90;;;;;;6106456;23;20858;-70
2021/06/30 10:02:02;;;;;;;14.63;11.80;;;23.70;1.00;;;;;;6106312;23;20392;-69
2021/06/30 10:04:37;;;;;;;15.20;11.03;;;23.90;1.00;;;;;;6107008;23;20407;-70
2021/06/30 10:07:12;;;;;;;14.00;11.77;;;24.00;1.00;;;;;;6107959;23;20814;-69
2021/06/30 10:09:39;;;;;;;13.40;11.93;;;23.70;1.00;;;;;;6107956;23;20367;-67
2021/06/30 10:12:09;;;;;;;14.27;11.90;;;23.80;99.90;;;;;;6106480;23;20533;-67
2021/06/30 10:14:35;;;;;;;13.47;12.00;;;23.60;96.70;;;;;;6108282;23;20843;-68
2021/06/30 10:17:02;;;;;;;14.67;12.67;;;23.60;99.90;;;;;;6096303;23;20395;-68
2021/06/30 10:19:29;;;;;;;14.47;11.10;;;24.10;1.00;;;;;;6098091;23;20398;-67
2021/06/30 10:21:55;;;;;;;16.47;12.13;;;24.40;99.90;;;;;;6096586;23;20403;-67
2021/06/30 10:24:21;;;;;;;15.20;12.27;;;24.20;1.00;;;;;;6098162;23;20399;-68
2021/06/30 10:26:47;;;;;;;14.07;12.57;;;23.80;1.00;;;;;;6107576;23;20756;-67
2021/06/30 10:29:15;;;;;;;15.17;12.70;;;23.70;1.00;;;;;;6097790;23;20414;-67
2021/06/30 10:31:42;;;;;;;17.13;12.40;;;23.60;1.00;;;;;;6107491;23;20789;-68
2021/06/30 10:34:10;;;;;;;15.20;12.67;;;23.70;1.00;;;;;;6098063;23;20801;-67
2021/06/30 10:36:49;;;;;;;13.90;12.40;;;23.70;58.50;;;;;;6107292;23;20847;-67
2021/06/30 10:39:18;;;;;;;17.03;12.13;;;24.30;1.00;;;;;;6107526;23;20822;-68
2021/06/30 10:41:43;;;;;;;13.30;10.17;;;24.70;99.90;;;;;;6098177;23;20402;-68
2021/06/30 10:44:13;;;;;;;13.53;10.17;;;25.10;99.90;;;;;;6097976;23;20431;-68
2021/06/30 10:46:39;;;;;;;11.00;8.83;;;25.30;1.00;;;;;;6107620;23;20217;-68
2021/06/30 10:49:14;;;;;;;9.83;8.80;;;25.60;59.90;;;;;;6097532;23;20404;-69
2021/06/30 10:51:48;;;;;;;11.07;9.80;;;25.90;1.00;;;;;;6107408;23;20391;-68
2021/06/30 10:54:36;;;;;;;10.40;9.37;;;25.30;99.90;;;;;;6107426;23;20833;-68
2021/06/30 10:57:25;;;;;;;11.37;9.10;;;24.90;1.00;;;;;;6107546;23;20471;-67
2021/06/30 11:00:06;;;;;;;12.30;8.97;;;24.30;1.00;;;;;;6120136;23;20398;-73
2021/06/30 11:02:34;;;;;;;11.13;8.47;;;24.40;99.90;;;;;;6107249;23;20853;-74
2021/06/30 11:05:21;;;;;;;10.40;9.00;;;24.10;99.90;;;;;;6120496;23;20396;-71
2021/06/30 11:07:47;;;;;;;17.43;10.23;;;23.80;99.90;;;;;;6081611;23;20395;-73
2021/06/30 11:10:16;;;;;;;10.83;8.73;;;23.80;99.90;;;;;;6107322;23;20372;-73
2021/06/30 11:12:58;;;;;;;10.03;9.00;;;23.80;71.10;;;;;;6096127;23;20443;-72
2021/06/30 11:15:39;;;;;;;11.20;8.77;;;23.90;66.70;;;;;;6107006;23;20403;-72
2021/06/30 11:18:11;;;;;;;10.60;9.23;;;24.40;1.00;;;;;;6106397;23;20383;-72
2021/06/30 11:20:48;;;;;;;12.10;9.40;;;24.10;1.00;;;;;;6107364;23;20480;-72
2021/06/30 11:23:21;;;;;;;13.23;10.50;;;24.10;99.90;;;;;;6106920;23;20865;-74
2021/06/30 11:25:48;;;;;;;11.40;9.60;;;24.40;1.00;;;;;;6106845;23;20450;-75
2021/06/30 11:28:34;;;;;;;12.43;9.23;;;24.80;1.00;;;;;;6106273;23;20399;-74
2021/06/30 11:31:20;;;;;;;10.27;8.87;;;25.10;99.90;;;;;;6120241;23;20406;-73
2021/06/30 11:34:13;;;;;;;10.10;7.70;;;25.50;1.00;;;;;;6119965;23;20431;-73
2021/06/30 11:36:40;;;;;;;11.00;9.37;;;25.40;99.90;;;;;;6106688;23;20450;-74
2021/06/30 11:39:13;;;;;;;14.40;10.33;;;24.80;1.00;;;;;;6106735;23;20702;-73
2021/06/30 11:41:47;;;;;;;12.70;10.67;;;24.00;99.90;;;;;;6107892;23;20396;-73
2021/06/30 11:44:14;;;;;;;12.63;9.90;;;23.40;85.80;;;;;;6109142;23;20363;-73
2021/06/30 11:46:41;;;;;;;16.27;11.00;;;23.60;99.90;;;;;;6122549;23;20387;-74
2021/06/30 11:49:11;;;;;;;11.40;9.90;;;23.90;99.90;;;;;;6108248;23;20379;-73
2021/06/30 11:51:37;;;;;;;12.80;10.07;;;24.40;1.00;;;;;;6108943;23;20384;-74
2021/06/30 11:54:02;;;;;;;10.77;9.40;;;24.70;1.00;;;;;;6098772;23;20878;-73
2021/06/30 11:56:30;;;;;;;10.70;9.33;;;24.60;1.00;;;;;;6109071;23;20159;-72
2021/06/30 11:58:56;;;;;;;12.40;10.03;;;23.80;1.00;;;;;;6108388;23;20151;-72
2021/06/30 12:01:25;;;;;;;11.53;9.67;;;23.60;99.90;;;;;;6109088;23;20387;-73
2021/06/30 12:04:17;;;;;;;10.53;9.13;;;23.50;1.00;;;;;;6108691;23;20474;-72
2021/06/30 12:06:46;;;;;;;10.40;9.30;;;23.80;1.00;;;;;;6108921;23;20851;-73
2021/06/30 12:09:20;;;;;;;14.90;10.07;;;24.10;1.00;;;;;;6122431;23;20901;-73
2021/06/30 12:11:52;;;;;;;12.10;10.00;;;24.20;99.90;;;;;;6122592;23;20542;-71
2021/06/30 12:14:24;;;;;;;14.30;10.00;;;23.80;30.20;;;;;;6109342;23;20815;-71
2021/06/30 12:16:56;;;;;;;13.23;11.50;;;24.00;1.00;;;;;;6099448;23;20402;-71
2021/06/30 12:19:34;;;;;;;18.20;12.33;;;23.80;99.90;;;;;;6099670;23;20447;-71
2021/06/30 12:22:01;;;;;;;14.90;11.60;;;23.80;99.90;;;;;;6109410;23;20835;-73
2021/06/30 12:24:28;;;;;;;14.30;12.67;;;23.70;99.90;;;;;;6109422;23;20383;-70
2021/06/30 12:27:01;;;;;;;16.50;12.90;;;23.40;1.00;;;;;;6108948;23;20407;-70
2021/06/30 12:29:27;;;;;;;13.00;11.70;;;23.20;1.00;;;;;;6098864;23;20399;-70
2021/06/30 12:31:53;;;;;;;13.07;11.20;;;23.10;99.90;;;;;;6108838;23;20383;-70
2021/06/30 12:34:19;;;;;;;14.80;11.10;;;23.20;99.90;;;;;;6108667;23;20411;-69